Time;durP1;ratioP1;P1;durP2;ratioP2;P2;SDS_P1;SDS_P2;PMS_P1;PMS_P2;Temp;Humidity;BMP_temperature;BMP_pressure;BME280_temperature;BME280_humidity;BME280_pressure;Samples;Min_cycle;Max_cycle;Signal;HPM_P1;HPM_P2
2023/03/01 00:02:06;;;;;;;33.05;15.45;;;;;;;-0.60;60.16;99959.72;5155173;28;20560;-69
2023/03/01 00:04:57;;;;;;;36.17;14.68;;;;;;;-0.63;60.97;99941.63;5153590;28;20050;-69
2023/03/01 00:07:47;;;;;;;34.90;15.48;;;;;;;-0.73;60.88;99935.00;5152275;28;20169;-69
2023/03/01 00:10:37;;;;;;;36.90;15.93;;;;;;;-0.78;60.89;99958.59;5150410;28;20433;-69
2023/03/01 00:13:28;;;;;;;38.38;15.43;;;;;;;-0.83;60.62;99944.88;5159664;28;20438;-69
2023/03/01 00:16:24;;;;;;;36.47;16.20;;;;;;;-0.75;61.13;99957.66;5153533;28;20478;-69
2023/03/01 00:19:19;;;;;;;36.65;15.90;;;;;;;-0.56;61.39;99953.53;5159213;28;20078;-69
2023/03/01 00:22:09;;;;;;;40.97;16.50;;;;;;;-0.56;61.42;99963.13;5152018;28;20131;-69
2023/03/01 00:24:59;;;;;;;30.63;14.30;;;;;;;-0.79;61.57;99953.44;5150853;28;20528;-69
2023/03/01 00:27:49;;;;;;;36.13;16.10;;;;;;;-0.72;60.74;99973.16;5158464;28;20185;-70
2023/03/01 00:30:39;;;;;;;36.38;16.27;;;;;;;-0.65;61.26;99966.00;5147522;28;20720;-69
2023/03/01 00:33:30;;;;;;;36.17;15.75;;;;;;;-0.67;61.65;99970.41;5154899;28;20816;-69
2023/03/01 00:36:20;;;;;;;42.10;16.45;;;;;;;-1.02;61.56;99968.03;5148261;28;20058;-69
2023/03/01 00:39:14;;;;;;;39.70;17.10;;;;;;;-1.00;63.35;99976.63;5156461;28;20061;-69
2023/03/01 00:42:04;;;;;;;39.42;17.27;;;;;;;-0.88;62.56;99972.78;5154253;28;20500;-69
2023/03/01 00:44:54;;;;;;;40.10;16.42;;;;;;;-0.69;62.75;99970.47;5142450;28;20061;-69
2023/03/01 00:47:45;;;;;;;40.20;17.92;;;;;;;-0.69;62.54;99975.69;5156386;28;20069;-69
2023/03/01 00:50:35;;;;;;;39.55;16.75;;;;;;;-0.72;62.56;99967.97;5148460;28;20637;-69
2023/03/01 00:53:26;;;;;;;39.28;16.50;;;;;;;-0.68;62.25;99960.91;5158582;28;20512;-69
2023/03/01 00:56:17;;;;;;;41.80;16.23;;;;;;;-0.56;61.76;99963.97;5166333;28;20054;-69
2023/03/01 00:59:07;;;;;;;37.92;16.77;;;;;;;-0.99;61.77;99926.28;5155315;28;20141;-69
2023/03/01 01:01:59;;;;;;;39.45;16.88;;;;;;;-0.62;61.64;99964.16;5149608;28;20157;-69
2023/03/01 01:04:49;;;;;;;37.90;17.42;;;;;;;-0.84;62.26;99958.78;5158652;28;20088;-68
2023/03/01 01:07:39;;;;;;;40.25;17.25;;;;;;;-0.95;61.91;99955.66;5132567;28;20487;-69
2023/03/01 01:10:30;;;;;;;42.78;17.00;;;;;;;-1.00;61.13;99957.56;5156256;28;20450;-69
2023/03/01 01:13:19;;;;;;;39.38;15.98;;;;;;;-1.02;61.63;99956.75;5163538;28;20108;-69
2023/03/01 01:16:10;;;;;;;35.72;16.17;;;;;;;-1.08;60.96;99960.41;5159775;28;20089;-69
2023/03/01 01:19:01;;;;;;;37.95;16.33;;;;;;;-1.06;60.56;99957.75;5174458;28;20127;-69
2023/03/01 01:21:51;;;;;;;38.13;16.58;;;;;;;-1.05;61.62;99952.50;5154750;28;20046;-69
2023/03/01 01:24:41;;;;;;;34.97;16.17;;;;;;;-1.00;62.67;99947.97;5159650;28;20055;-69
2023/03/01 01:27:32;;;;;;;43.83;17.33;;;;;;;-0.85;61.70;99927.59;5162374;28;20117;-69
2023/03/01 01:30:22;;;;;;;34.47;16.25;;;;;;;-0.88;61.72;99945.91;5161969;28;20083;-69
2023/03/01 01:33:13;;;;;;;38.28;16.33;;;;;;;-0.88;61.58;99944.16;5151351;28;20054;-69
2023/03/01 01:36:08;;;;;;;42.50;17.35;;;;;;;-0.95;62.33;99917.47;5159807;28;20057;-69
2023/03/01 01:38:59;;;;;;;42.63;18.10;;;;;;;-0.98;62.30;99929.72;5151523;28;20046;-69
2023/03/01 01:41:49;;;;;;;40.45;16.23;;;;;;;-1.03;61.81;99924.66;5149342;28;20536;-69
2023/03/01 01:44:40;;;;;;;40.90;17.27;;;;;;;-1.08;62.23;99895.34;5159073;28;20058;-69
2023/03/01 01:47:30;;;;;;;42.53;16.80;;;;;;;-1.02;61.66;99928.97;5154518;28;20096;-69
2023/03/01 01:50:21;;;;;;;48.53;17.27;;;;;;;-1.25;61.25;99901.06;5152149;28;20054;-69
2023/03/01 01:53:18;;;;;;;41.88;17.55;;;;;;;-1.25;61.17;99915.84;5161949;28;20424;-69
2023/03/01 01:56:12;;;;;;;39.53;16.63;;;;;;;-1.36;62.25;99882.31;5178717;28;20054;-69
2023/03/01 01:59:03;;;;;;;37.72;14.93;;;;;;;-0.93;62.24;99922.59;5139048;28;20081;-69
2023/03/01 02:01:54;;;;;;;40.13;16.88;;;;;;;-0.87;61.95;99900.75;5154882;28;20090;-69
2023/03/01 02:04:46;;;;;;;37.65;16.70;;;;;;;-0.74;62.44;99910.69;5162296;28;20602;-69
2023/03/01 02:07:39;;;;;;;40.22;16.38;;;;;;;-0.73;61.97;99904.63;5160278;28;20058;-69
2023/03/01 02:10:33;;;;;;;37.80;16.27;;;;;;;-0.77;61.82;99881.31;5159330;28;20070;-69
2023/03/01 02:13:23;;;;;;;39.15;15.88;;;;;;;-0.60;62.20;99889.41;5152596;28;20189;-69
2023/03/01 02:16:15;;;;;;;43.13;18.48;;;;;;;-0.58;61.92;99878.94;5153351;28;20054;-70
2023/03/01 02:19:06;;;;;;;37.42;15.93;;;;;;;-0.64;61.38;99882.59;5159211;28;20050;-69
2023/03/01 02:22:10;;;;;;;37.22;16.35;;;;;;;-0.55;61.50;99889.28;5150779;28;20531;-69
2023/03/01 02:25:05;;;;;;;36.80;16.20;;;;;;;-0.48;61.87;99883.78;5158903;28;20069;-69
2023/03/01 02:28:13;;;;;;;39.67;16.50;;;;;;;-0.24;61.76;99881.22;5160873;28;20046;-69
2023/03/01 02:34:19;;;;;;;42.70;17.20;;;;;;;-0.29;61.21;99863.16;5156651;28;20050;-69
2023/03/01 02:37:20;;;;;;;39.25;17.20;;;;;;;-0.21;60.46;99868.09;5142798;28;20538;-69
2023/03/01 02:40:18;;;;;;;38.28;17.75;;;;;;;-0.28;60.17;99836.19;5134668;28;20054;-69
2023/03/01 02:43:11;;;;;;;45.17;17.83;;;;;;;-0.13;60.35;99858.25;5157996;28;20059;-69
2023/03/01 02:46:25;;;;;;;39.75;17.52;;;;;;;-0.02;61.65;99855.25;5149619;28;20062;-69
2023/03/01 02:49:30;;;;;;;49.38;18.58;;;;;;;-0.14;62.83;99850.47;5163841;28;20042;-69
2023/03/01 02:52:41;;;;;;;41.83;16.70;;;;;;;0.19;61.63;99843.16;5163345;28;20054;-69
2023/03/01 02:55:31;;;;;;;39.78;17.33;;;;;;;0.27;60.59;99850.72;5152148;28;20073;-69
2023/03/01 02:58:22;;;;;;;37.50;16.83;;;;;;;0.12;60.60;99837.34;5151451;28;20054;-69
2023/03/01 03:01:15;;;;;;;50.83;19.08;;;;;;;0.09;60.25;99810.53;5152572;28;20140;-69
2023/03/01 03:04:09;;;;;;;35.95;17.15;;;;;;;0.28;60.76;99834.16;5150616;28;20046;-69
2023/03/01 03:07:00;;;;;;;36.35;16.83;;;;;;;0.32;59.79;99830.50;5146092;28;20061;-69
2023/03/01 03:09:50;;;;;;;44.47;17.55;;;;;;;0.39;59.80;99838.03;5159988;28;20062;-68
2023/03/01 03:12:40;;;;;;;41.10;17.25;;;;;;;0.42;59.40;99835.31;5175824;28;20616;-68
2023/03/01 03:15:31;;;;;;;41.65;17.42;;;;;;;0.39;61.58;99835.41;5158690;28;20184;-68
2023/03/01 03:18:25;;;;;;;35.03;16.50;;;;;;;0.46;61.29;99839.53;5152353;28;20057;-69
2023/03/01 03:21:16;;;;;;;42.53;17.85;;;;;;;0.39;61.45;99813.72;5155290;28;20555;-68
2023/03/01 03:24:06;;;;;;;51.00;18.67;;;;;;;0.63;60.52;99831.03;5178337;28;20697;-68
2023/03/01 03:26:56;;;;;;;42.42;18.27;;;;;;;0.64;60.27;99824.03;5156620;28;20061;-68
2023/03/01 03:29:46;;;;;;;44.38;18.58;;;;;;;0.65;60.56;99828.34;5160684;28;20052;-68
2023/03/01 03:32:36;;;;;;;45.92;18.40;;;;;;;0.72;60.71;99832.41;5159012;28;20747;-68
2023/03/01 03:35:29;;;;;;;43.13;17.42;;;;;;;0.66;60.58;99833.53;5150383;28;20053;-68
2023/03/01 03:38:21;;;;;;;50.58;18.52;;;;;;;0.36;61.66;99824.25;5154029;28;20413;-68
2023/03/01 03:41:12;;;;;;;44.50;18.17;;;;;;;0.27;62.42;99804.63;5154389;28;20054;-68
2023/03/01 03:44:02;;;;;;;39.20;16.80;;;;;;;0.54;61.54;99828.78;5142737;28;20060;-68
2023/03/01 03:46:52;;;;;;;47.33;18.65;;;;;;;0.72;60.87;99824.56;5159614;28;20113;-68
2023/03/01 03:49:42;;;;;;;41.35;18.17;;;;;;;0.69;60.75;99822.09;5155692;28;20065;-68
2023/03/01 03:52:33;;;;;;;40.35;17.92;;;;;;;0.88;59.86;99820.44;5144457;28;20157;-69
2023/03/01 03:55:27;;;;;;;38.53;17.30;;;;;;;0.93;60.16;99813.28;5157422;28;20054;-68
2023/03/01 03:58:20;;;;;;;37.47;17.58;;;;;;;0.92;60.11;99816.78;5161271;28;20053;-67
2023/03/01 04:01:10;;;;;;;37.78;17.27;;;;;;;0.90;59.55;99808.19;5158083;28;20061;-67
2023/03/01 04:04:03;;;;;;;43.75;17.50;;;;;;;0.84;60.71;99808.44;5145635;28;20054;-67
2023/03/01 04:06:54;;;;;;;44.03;18.00;;;;;;;1.07;59.91;99804.03;5160119;28;20054;-69
2023/03/01 04:09:43;;;;;;;41.85;18.77;;;;;;;0.99;59.69;99779.97;5154579;28;20090;-68
2023/03/01 04:12:34;;;;;;;41.88;18.05;;;;;;;1.21;60.82;99798.22;5147855;28;20058;-67
2023/03/01 04:15:26;;;;;;;42.90;16.83;;;;;;;1.13;59.33;99790.72;5160218;28;20057;-70
2023/03/01 04:18:19;;;;;;;43.88;18.58;;;;;;;1.13;59.66;99794.16;5157853;28;20073;-67
2023/03/01 04:21:11;;;;;;;39.50;17.75;;;;;;;1.20;59.53;99799.97;5157310;28;20113;-67
2023/03/01 04:24:03;;;;;;;38.28;17.48;;;;;;;1.16;59.42;99786.19;5157577;28;20559;-67
2023/03/01 04:26:53;;;;;;;39.30;17.13;;;;;;;1.16;59.81;99772.28;5156353;28;20066;-69
2023/03/01 04:29:43;;;;;;;43.67;17.52;;;;;;;1.30;59.45;99795.22;5159898;28;20089;-67
2023/03/01 04:32:34;;;;;;;39.95;17.63;;;;;;;1.28;59.87;99778.75;5154376;28;20049;-69
2023/03/01 04:35:24;;;;;;;40.08;18.38;;;;;;;1.39;59.15;99786.94;5155351;28;20181;-67
2023/03/01 04:38:16;;;;;;;45.50;18.13;;;;;;;1.52;59.18;99792.50;5160499;28;20046;-67
2023/03/01 04:41:09;;;;;;;41.53;18.52;;;;;;;1.55;58.62;99789.75;5158291;28;20181;-68
2023/03/01 04:43:59;;;;;;;41.85;17.70;;;;;;;1.43;59.17;99783.31;5156003;28;20495;-69
2023/03/01 04:46:50;;;;;;;45.65;18.35;;;;;;;1.53;58.94;99789.00;5152451;28;20061;-67
2023/03/01 04:49:40;;;;;;;40.15;18.55;;;;;;;1.56;58.40;99799.31;5160025;28;20062;-68
2023/03/01 04:52:31;;;;;;;42.78;18.25;;;;;;;1.43;59.24;99795.53;5157273;28;20061;-67
2023/03/01 04:55:21;;;;;;;39.95;16.83;;;;;;;1.50;59.07;99795.19;5158864;28;20082;-68
2023/03/01 04:58:11;;;;;;;37.00;16.85;;;;;;;1.50;58.80;99794.34;5162891;28;20091;-68
2023/03/01 05:01:14;;;;;;;42.72;17.83;;;;;;;1.44;59.19;99779.78;5160449;28;20050;-67
2023/03/01 05:04:05;;;;;;;38.53;18.35;;;;;;;1.62;58.77;99799.00;5157155;28;20673;-67
2023/03/01 05:06:56;;;;;;;37.55;17.60;;;;;;;1.59;58.49;99804.38;5161312;28;20082;-67
2023/03/01 05:09:46;;;;;;;40.28;17.33;;;;;;;1.59;59.32;99804.38;5166126;28;20065;-67
2023/03/01 05:12:37;;;;;;;44.92;18.38;;;;;;;1.57;59.90;99799.22;5153566;28;20049;-69
2023/03/01 05:15:30;;;;;;;39.63;18.38;;;;;;;1.63;59.14;99800.72;5165155;28;20503;-67
2023/03/01 05:18:20;;;;;;;38.83;17.40;;;;;;;1.43;60.02;99787.69;5156518;28;20516;-70
2023/03/01 05:21:12;;;;;;;38.72;17.38;;;;;;;1.40;59.55;99796.50;5153658;28;20081;-67
2023/03/01 05:24:03;;;;;;;39.88;16.90;;;;;;;1.30;59.38;99792.59;5163694;28;20054;-67
2023/03/01 05:26:53;;;;;;;39.50;17.98;;;;;;;1.22;59.57;99795.53;5162275;28;20432;-68
2023/03/01 05:29:43;;;;;;;43.58;18.40;;;;;;;0.83;61.84;99777.13;5162072;28;20057;-68
2023/03/01 05:32:33;;;;;;;42.03;19.02;;;;;;;0.94;60.51;99791.47;5161357;28;20081;-68
2023/03/01 05:35:24;;;;;;;50.88;20.58;;;;;;;0.96;59.77;99793.16;5158734;28;20050;-68
2023/03/01 05:38:16;;;;;;;42.75;19.05;;;;;;;0.90;59.87;99797.72;5161933;28;20054;-67
2023/03/01 05:41:13;;;;;;;45.75;19.17;;;;;;;0.91;60.38;99795.97;5158316;28;20053;-68
2023/03/01 05:44:06;;;;;;;41.17;18.33;;;;;;;0.91;61.10;99796.81;5154322;28;20669;-67
2023/03/01 05:46:57;;;;;;;43.78;17.27;;;;;;;0.93;60.13;99796.75;5152536;28;20524;-68
2023/03/01 05:49:47;;;;;;;36.50;17.27;;;;;;;0.74;59.56;99786.22;5156145;28;20054;-67
2023/03/01 05:52:37;;;;;;;41.60;17.27;;;;;;;0.82;59.91;99785.91;5145973;28;20061;-67
2023/03/01 05:55:30;;;;;;;40.45;17.58;;;;;;;0.80;60.93;99793.81;5148671;28;20054;-68
2023/03/01 05:58:21;;;;;;;46.65;18.48;;;;;;;0.72;61.04;99795.00;5160683;28;20076;-69
2023/03/01 06:01:13;;;;;;;42.97;18.35;;;;;;;0.71;60.40;99788.94;5161635;28;20042;-68
2023/03/01 06:04:04;;;;;;;43.97;18.10;;;;;;;0.66;61.32;99793.50;5164831;28;20054;-68
2023/03/01 06:06:54;;;;;;;43.38;18.15;;;;;;;0.65;61.45;99789.19;5158688;28;20162;-68
2023/03/01 06:09:44;;;;;;;51.00;19.05;;;;;;;0.66;61.43;99780.44;5157850;28;20096;-69
2023/03/01 06:12:37;;;;;;;43.22;18.17;;;;;;;0.81;61.21;99792.03;5166075;28;20136;-68
2023/03/01 06:15:27;;;;;;;44.92;18.65;;;;;;;0.88;59.81;99785.66;5162413;28;20068;-66
2023/03/01 06:18:18;;;;;;;37.38;17.77;;;;;;;0.82;60.20;99791.13;5163219;28;20172;-67
2023/03/01 06:21:08;;;;;;;40.60;18.95;;;;;;;0.78;59.78;99795.63;5161541;28;20100;-67
2023/03/01 06:23:59;;;;;;;41.70;18.55;;;;;;;0.90;59.93;99792.50;5153592;28;20418;-67
2023/03/01 06:26:49;;;;;;;43.65;18.27;;;;;;;0.85;59.96;99797.06;5162857;28;20129;-67
2023/03/01 06:29:39;;;;;;;44.67;18.48;;;;;;;0.98;59.59;99791.34;5160759;28;20101;-67
2023/03/01 06:32:31;;;;;;;43.85;18.52;;;;;;;0.89;58.96;99780.38;5162946;28;20100;-67
2023/03/01 06:35:21;;;;;;;42.90;18.35;;;;;;;0.98;58.97;99791.34;5155950;28;20172;-67
2023/03/01 06:38:14;;;;;;;34.70;17.38;;;;;;;0.99;59.65;99787.81;5160640;28;20050;-68
2023/03/01 06:41:05;;;;;;;44.00;19.07;;;;;;;1.03;59.65;99789.41;5176379;28;20090;-69
2023/03/01 06:43:55;;;;;;;43.38;17.70;;;;;;;0.95;59.45;99781.88;5161754;28;20460;-68
2023/03/01 06:46:46;;;;;;;45.80;19.45;;;;;;;0.88;59.02;99770.81;5148756;28;20050;-67
2023/03/01 06:49:36;;;;;;;41.92;18.65;;;;;;;0.97;58.95;99787.03;5160749;28;20046;-67
2023/03/01 06:52:27;;;;;;;44.78;18.45;;;;;;;0.95;59.24;99787.09;5164448;28;20049;-68
2023/03/01 06:55:18;;;;;;;39.72;18.52;;;;;;;0.89;58.58;99783.00;5165131;28;20085;-67
2023/03/01 06:58:09;;;;;;;42.58;18.90;;;;;;;1.07;59.07;99786.59;5153652;28;20515;-67
2023/03/01 07:00:59;;;;;;;56.08;20.20;;;;;;;0.97;59.07;99780.06;5160743;28;20113;-67
2023/03/01 07:03:49;;;;;;;49.30;19.10;;;;;;;1.24;58.30;99761.50;5151492;28;20105;-67
2023/03/01 07:06:40;;;;;;;44.47;18.45;;;;;;;1.30;58.62;99774.31;5150080;28;20073;-67
2023/03/01 07:09:31;;;;;;;42.33;19.15;;;;;;;1.29;59.49;99789.13;5147707;28;20545;-65
2023/03/01 07:12:21;;;;;;;40.63;18.25;;;;;;;1.13;58.96;99749.75;5160370;28;20054;-66
2023/03/01 07:15:12;;;;;;;44.00;19.42;;;;;;;1.37;58.86;99773.13;5159085;28;20078;-66
2023/03/01 07:18:02;;;;;;;52.70;20.60;;;;;;;1.53;58.95;99762.84;5160077;28;20440;-68
2023/03/01 07:20:53;;;;;;;48.42;19.30;;;;;;;2.13;57.75;99765.34;5154227;28;20062;-68
2023/03/01 07:23:43;;;;;;;43.47;19.98;;;;;;;2.16;56.60;99767.84;5161768;28;20050;-70
2023/03/01 07:26:33;;;;;;;47.85;19.60;;;;;;;2.33;55.67;99763.50;5140232;28;20080;-71
2023/03/01 07:29:23;;;;;;;42.53;18.30;;;;;;;2.47;56.22;99754.13;5160375;28;20112;-69
2023/03/01 07:32:13;;;;;;;41.65;19.25;;;;;;;3.14;54.59;99732.41;5142573;28;20065;-68
2023/03/01 07:35:04;;;;;;;41.13;18.98;;;;;;;3.80;52.35;99759.59;5160714;28;20053;-68
2023/03/01 07:37:54;;;;;;;45.97;19.52;;;;;;;4.04;51.15;99760.91;5157669;28;20627;-68
2023/03/01 07:40:43;;;;;;;41.80;18.95;;;;;;;3.77;52.02;99750.09;5157495;28;20120;-67
2023/03/01 07:43:34;;;;;;;39.60;18.30;;;;;;;3.81;52.37;99754.28;5158640;28;20053;-69
2023/03/01 07:46:24;;;;;;;41.90;18.15;;;;;;;3.62;52.53;99749.16;5158384;28;20049;-69
2023/03/01 07:49:14;;;;;;;45.15;19.50;;;;;;;3.51;51.97;99748.88;5158705;28;20548;-68
2023/03/01 07:52:05;;;;;;;41.92;17.77;;;;;;;3.42;51.87;99742.34;5148098;28;20056;-69
2023/03/01 07:54:55;;;;;;;46.40;19.27;;;;;;;3.76;51.39;99746.63;5161186;28;20192;-68
2023/03/01 07:57:45;;;;;;;38.33;17.10;;;;;;;3.50;50.65;99729.66;5151042;28;20101;-69
2023/03/01 08:00:35;;;;;;;40.97;17.60;;;;;;;4.07;50.80;99747.56;5154605;28;20557;-70
2023/03/01 08:03:25;;;;;;;43.13;18.67;;;;;;;5.36;47.44;99738.41;5145110;28;20046;-70
2023/03/01 08:06:17;;;;;;;43.08;17.65;;;;;;;5.81;47.48;99740.94;5159982;28;20058;-70
2023/03/01 08:09:08;;;;;;;38.30;17.27;;;;;;;5.86;46.91;99738.84;5159637;28;20249;-70
2023/03/01 08:11:59;;;;;;;40.17;18.25;;;;;;;5.77;47.24;99736.81;5173310;28;20046;-70
2023/03/01 08:14:49;;;;;;;38.30;18.50;;;;;;;5.94;45.52;99736.63;5155554;28;20060;-68
2023/03/01 08:17:40;;;;;;;42.95;17.73;;;;;;;5.86;46.44;99710.75;5159839;28;20050;-70
2023/03/01 08:20:30;;;;;;;35.83;18.33;;;;;;;6.65;44.43;99729.44;5155876;28;20061;-69
2023/03/01 08:23:20;;;;;;;37.55;18.27;;;;;;;5.92;46.35;99725.31;5161503;28;20484;-69
2023/03/01 08:26:16;;;;;;;37.40;17.60;;;;;;;6.41;44.40;99727.47;5153802;28;20066;-67
2023/03/01 08:29:07;;;;;;;41.92;17.90;;;;;;;6.04;45.61;99714.03;5157832;28;20061;-67
2023/03/01 08:31:57;;;;;;;39.60;18.60;;;;;;;7.17;44.49;99734.72;5157472;28;20046;-68
2023/03/01 08:34:47;;;;;;;36.55;17.55;;;;;;;7.47;43.67;99715.94;5153981;28;20137;-67
2023/03/01 08:37:38;;;;;;;43.13;18.63;;;;;;;8.15;42.55;99713.84;5158394;28;20197;-67
2023/03/01 08:40:29;;;;;;;38.55;17.73;;;;;;;8.11;42.08;99712.34;5153650;28;20053;-67
2023/03/01 08:43:19;;;;;;;37.17;17.85;;;;;;;8.13;41.37;99710.44;5160463;28;20224;-67
2023/03/01 08:46:11;;;;;;;34.85;17.17;;;;;;;7.87;41.78;99720.22;5160662;28;20057;-67
2023/03/01 08:49:06;;;;;;;46.20;18.58;;;;;;;7.71;42.78;99709.91;5158197;28;20136;-67
2023/03/01 08:51:57;;;;;;;38.05;18.20;;;;;;;6.83;43.38;99718.53;5159553;28;20185;-67
2023/03/01 08:54:48;;;;;;;36.78;18.98;;;;;;;7.31;42.70;99715.31;5175996;28;20056;-67
2023/03/01 08:57:38;;;;;;;35.67;18.15;;;;;;;8.03;41.36;99704.97;5156309;28;20129;-67
2023/03/01 09:00:29;;;;;;;32.65;18.23;;;;;;;8.12;41.69;99704.31;5158987;28;20428;-67
2023/03/01 09:03:19;;;;;;;36.15;18.08;;;;;;;8.46;41.61;99708.03;5160748;28;20053;-67
2023/03/01 09:06:10;;;;;;;35.75;16.92;;;;;;;6.64;42.95;99711.97;5158016;28;20419;-67
2023/03/01 09:09:02;;;;;;;35.33;18.15;;;;;;;7.26;42.57;99705.09;5159032;28;20424;-67
2023/03/01 09:11:52;;;;;;;32.80;17.50;;;;;;;7.88;41.06;99698.16;5161318;28;20054;-68
2023/03/01 09:14:43;;;;;;;43.50;19.48;;;;;;;8.74;40.97;99692.78;5160109;28;20160;-67
2023/03/01 09:17:33;;;;;;;30.67;17.58;;;;;;;8.42;40.04;99685.44;5164933;28;20416;-67
2023/03/01 09:20:23;;;;;;;32.58;16.38;;;;;;;8.89;40.01;99683.66;5159043;28;20098;-67
2023/03/01 09:23:13;;;;;;;33.03;17.45;;;;;;;8.60;40.46;99679.72;5151640;28;20054;-66
2023/03/01 09:26:08;;;;;;;31.17;17.00;;;;;;;8.20;41.08;99657.06;5159734;28;20065;-67
2023/03/01 09:28:59;;;;;;;37.78;18.08;;;;;;;8.50;40.04;99650.50;5157943;28;20059;-67
2023/03/01 09:31:49;;;;;;;36.45;17.60;;;;;;;8.63;39.82;99661.81;5159633;28;20065;-67
2023/03/01 09:37:49;;;;;;;31.30;17.50;;;;;;;8.24;39.31;99665.59;5158433;28;20058;-68
2023/03/01 09:40:46;;;;;;;37.85;18.50;;;;;;;8.05;39.65;99665.28;5158098;28;20472;-67
2023/03/01 09:43:57;;;;;;;35.72;17.75;;;;;;;8.63;39.33;99645.97;5161552;28;20125;-67
2023/03/01 09:46:48;;;;;;;31.85;17.10;;;;;;;9.32;39.04;99645.97;5163401;28;20057;-68
2023/03/01 09:49:48;;;;;;;33.00;17.30;;;;;;;9.54;39.60;99652.25;5162318;28;20061;-67
2023/03/01 09:52:43;;;;;;;39.88;18.40;;;;;;;8.18;41.30;99652.88;5163448;28;20057;-67
2023/03/01 09:55:45;;;;;;;32.70;17.92;;;;;;;9.52;38.97;99639.09;5160468;28;20077;-67
2023/03/01 09:58:48;;;;;;;35.67;17.45;;;;;;;8.69;39.40;99653.44;5163239;28;20065;-68
2023/03/01 10:02:03;;;;;;;34.10;17.08;;;;;;;9.03;38.93;99650.03;5161851;28;20073;-67
2023/03/01 10:05:05;;;;;;;34.00;17.48;;;;;;;8.76;39.46;99635.31;5145258;28;20058;-68
2023/03/01 10:08:10;;;;;;;34.45;17.17;;;;;;;9.78;38.77;99638.84;5153641;28;20057;-67
2023/03/01 10:11:01;;;;;;;36.10;17.35;;;;;;;7.76;40.24;99633.88;5143115;28;20065;-68
2023/03/01 10:14:13;;;;;;;33.50;17.67;;;;;;;8.28;41.01;99635.38;5142899;28;20660;-67
2023/03/01 10:17:09;;;;;;;36.60;18.52;;;;;;;9.08;38.43;99621.44;5141111;28;20062;-67
2023/03/01 10:20:18;;;;;;;29.67;16.38;;;;;;;7.74;40.45;99614.66;5148647;28;20081;-68
2023/03/01 10:23:08;;;;;;;30.70;17.10;;;;;;;7.95;40.82;99620.22;5143164;28;20299;-68
2023/03/01 10:26:11;;;;;;;39.03;18.65;;;;;;;7.06;42.10;99613.31;5145272;28;20460;-69
2023/03/01 10:29:12;;;;;;;34.97;18.87;;;;;;;7.82;41.98;99608.84;5143609;28;20196;-67
2023/03/01 10:32:06;;;;;;;32.92;17.60;;;;;;;8.87;38.77;99593.03;5141155;28;20424;-68
2023/03/01 10:34:57;;;;;;;38.85;18.58;;;;;;;8.20;39.99;99590.16;5145087;28;20541;-69
2023/03/01 10:38:17;;;;;;;37.40;17.55;;;;;;;7.38;43.15;99592.59;5146589;28;20068;-68
2023/03/01 10:41:07;;;;;;;30.50;16.38;;;;;;;7.05;41.51;99591.41;5144531;28;20058;-68
2023/03/01 10:44:00;;;;;;;40.63;18.48;;;;;;;7.12;41.89;99589.16;5145131;28;20054;-69
2023/03/01 10:46:59;;;;;;;34.47;17.23;;;;;;;7.07;42.07;99578.94;5150935;28;20050;-67
2023/03/01 10:50:05;;;;;;;36.55;17.75;;;;;;;6.64;43.81;99578.41;5152020;28;20488;-67
2023/03/01 10:53:01;;;;;;;36.13;17.60;;;;;;;6.93;42.73;99542.16;5154955;28;20073;-68
2023/03/01 10:56:10;;;;;;;32.90;16.98;;;;;;;7.71;41.53;99576.13;5147330;28;20144;-68
2023/03/01 10:59:03;;;;;;;32.17;17.15;;;;;;;7.18;42.82;99580.81;5155020;28;20168;-67
2023/03/01 11:02:09;;;;;;;28.80;13.38;;;;;;;7.40;42.11;99576.66;5148352;28;20192;-68
2023/03/01 11:05:14;;;;;;;37.67;16.58;;;;;;;7.17;42.36;99558.03;5155050;28;20057;-68
2023/03/01 11:08:05;;;;;;;32.22;17.98;;;;;;;7.40;43.78;99559.03;5141542;28;20058;-68
2023/03/01 11:11:06;;;;;;;33.47;16.65;;;;;;;7.90;41.57;99557.16;5145652;28;20137;-67
2023/03/01 11:14:13;;;;;;;31.42;16.52;;;;;;;7.88;43.00;99551.16;5146105;28;20046;-67
2023/03/01 11:17:23;;;;;;;40.65;16.90;;;;;;;9.14;39.89;99536.31;5154223;28;20054;-68
2023/03/01 11:20:13;;;;;;;31.00;17.10;;;;;;;7.64;40.98;99532.66;5147660;28;20756;-68
2023/03/01 11:23:15;;;;;;;33.38;18.00;;;;;;;8.72;41.80;99520.19;5150242;28;20073;-66
2023/03/01 11:26:08;;;;;;;35.67;17.27;;;;;;;8.15;42.29;99531.56;5133734;28;20539;-67
2023/03/01 11:29:07;;;;;;;32.72;16.25;;;;;;;7.97;42.42;99526.69;5146531;28;21437;-67
2023/03/01 11:32:02;;;;;;;33.13;17.67;;;;;;;8.45;43.01;99525.81;5143232;28;20547;-67
2023/03/01 11:35:14;;;;;;;39.17;16.05;;;;;;;7.65;42.32;99522.94;5148108;28;20594;-68
2023/03/01 11:38:23;;;;;;;30.83;15.98;;;;;;;8.27;42.50;99520.06;5143843;28;20065;-67
2023/03/01 11:41:17;;;;;;;33.40;16.88;;;;;;;8.09;41.54;99502.97;5149997;28;20420;-67
2023/03/01 11:44:17;;;;;;;32.15;17.05;;;;;;;7.70;42.27;99502.34;5146767;28;20082;-67
2023/03/01 11:47:48;;;;;;;33.33;16.63;;;;;;;7.76;41.22;99486.91;5152103;28;20155;-66
2023/03/01 11:50:46;;;;;;;30.33;15.82;;;;;;;8.57;41.83;99494.94;5142934;28;20047;-67
2023/03/01 11:53:50;;;;;;;32.92;16.92;;;;;;;7.99;40.93;99490.47;5143773;28;20054;-66
2023/03/01 11:56:57;;;;;;;28.77;16.35;;;;;;;7.47;42.97;99478.47;5142263;28;20073;-67
2023/03/01 11:59:57;;;;;;;32.05;17.08;;;;;;;8.94;41.21;99485.81;5136559;28;20413;-67
2023/03/01 12:03:09;;;;;;;33.85;15.88;;;;;;;8.46;41.61;99459.59;5136439;28;20471;-67
2023/03/01 12:06:12;;;;;;;33.90;16.70;;;;;;;8.13;40.67;99464.81;5143718;28;20122;-66
2023/03/01 12:09:12;;;;;;;36.70;16.70;;;;;;;8.74;42.78;99453.94;5141502;28;21486;-66
2023/03/01 12:12:06;;;;;;;36.90;17.45;;;;;;;9.36;40.14;99453.38;5144186;28;20483;-67
2023/03/01 12:15:19;;;;;;;30.45;16.60;;;;;;;7.92;41.92;99449.63;5148326;28;20097;-66
2023/03/01 12:18:45;;;;;;;34.58;17.08;;;;;;;8.06;40.90;99430.09;5145871;28;20175;-66
2023/03/01 12:22:30;;;;;;;31.42;16.27;;;;;;;8.93;41.16;99431.22;5143309;28;20065;-66
2023/03/01 12:25:25;;;;;;;;;;;;;;;7.91;41.65;99418.03;5137486;28;20057;-66
2023/03/01 12:28:37;;;;;;;29.77;16.35;;;;;;;8.05;42.43;99422.31;5141955;28;19995;-67
2023/03/01 12:31:48;;;;;;;34.67;17.38;;;;;;;8.52;40.63;99410.72;5128634;28;20124;-67
2023/03/01 12:35:12;;;;;;;32.15;16.67;;;;;;;9.28;40.60;99400.25;5142964;28;20143;-67
2023/03/01 12:38:17;;;;;;;32.40;18.10;;;;;;;9.51;40.37;99407.13;5135280;28;20081;-67
2023/03/01 12:41:39;;;;;;;32.55;16.30;;;;;;;9.66;39.94;99397.06;5162933;28;20189;-68
2023/03/01 12:44:48;;;;;;;39.17;16.60;;;;;;;9.57;40.95;99381.94;5160452;28;20115;-68
2023/03/01 12:47:56;;;;;;;34.08;17.30;;;;;;;8.43;41.34;99399.06;5155307;28;20420;-68
2023/03/01 12:50:51;;;;;;;30.02;16.33;;;;;;;8.63;41.42;99391.38;5151153;28;20046;-67
2023/03/01 12:53:48;;;;;;;32.50;16.80;;;;;;;9.58;40.21;99378.34;5158658;28;20054;-67
2023/03/01 12:56:38;;;;;;;32.53;17.15;;;;;;;9.53;41.08;99364.63;5154522;28;20428;-69
2023/03/01 12:59:44;;;;;;;31.75;16.88;;;;;;;9.25;41.42;99368.75;5147006;28;20077;-69
2023/03/01 13:02:49;;;;;;;38.47;18.23;;;;;;;9.68;40.71;99363.38;5158535;28;20062;-68
2023/03/01 13:05:56;;;;;;;;;;;;;;;9.85;39.94;99362.78;5160286;28;20053;-67
2023/03/01 13:09:01;;;;;;;32.45;16.73;;;;;;;10.16;39.11;99356.66;5146592;28;20503;-68
2023/03/01 13:11:51;;;;;;;33.10;17.33;;;;;;;9.80;39.25;99342.94;5153420;28;20641;-69
2023/03/01 13:14:45;;;;;;;35.50;16.63;;;;;;;8.26;41.34;99338.75;5157987;28;20054;-68
2023/03/01 13:17:45;;;;;;;23.90;13.15;;;;;;;8.14;40.88;99353.75;5156882;28;20049;-66
2023/03/01 13:20:41;;;;;;;33.08;16.80;;;;;;;9.43;41.04;99351.31;5158489;28;20050;-68
2023/03/01 13:23:35;;;;;;;34.30;16.73;;;;;;;9.82;40.94;99357.72;5161681;28;20604;-67
2023/03/01 13:26:25;;;;;;;35.03;17.77;;;;;;;9.56;40.96;99344.03;5160708;28;20053;-69
2023/03/01 13:29:26;;;;;;;37.20;17.40;;;;;;;9.87;40.74;99344.94;5148732;28;20739;-70
2023/03/01 13:32:23;;;;;;;33.83;17.10;;;;;;;8.77;40.72;99350.59;5162250;28;20652;-68
2023/03/01 13:35:44;;;;;;;35.35;17.45;;;;;;;8.88;40.91;99348.78;5160554;28;20506;-68
2023/03/01 13:38:37;;;;;;;32.03;16.05;;;;;;;8.88;42.78;99342.66;5151680;28;20145;-67